Terminal Aerodrome Forecast
Issued by NWS Duluth, MN

Home | Current Version | Previous Version | Text Only | Print | Product List | Glossary On
Versions: 1 2 3 4 5 6 7 8 9 10 11 12 13 14 15 16 17
000
FTUS43 KDLH 192337
TAFINL
TAF
KINL 192337Z 2000/2024 03008KT P6SM BKN100 OVC150
     FM200300 04007KT P6SM VCSH SCT035 OVC070
      TEMPO 2006/2008 2SM -SN OVC040
     FM200800 04007KT 1 1/2SM -SN SCT025 OVC040
     FM201000 04008KT 1 1/2SM -SN SCT015 OVC025
     FM201700 35007KT 1SM -SN OVC020
     FM201900 33007KT 5SM -SN OVC020=

USA.gov is the U.S. government's official web portal to all federal, state and local government web resources and services.